sensor_id;sensor_type;location;lat;lon;timestamp;P1;durP1;ratioP1;P2;durP2;ratioP2
45784;SDS011;31489;51.404;5.474;2024-01-30T00:02:22;9.77;;;5.88;;
45784;SDS011;31489;51.404;5.474;2024-01-30T00:04:47;7.75;;;5.38;;
45784;SDS011;31489;51.404;5.474;2024-01-30T00:07:13;6.47;;;4.85;;
45784;SDS011;31489;51.404;5.474;2024-01-30T00:09:38;10.15;;;6.32;;
45784;SDS011;31489;51.404;5.474;2024-01-30T00:12:05;8.25;;;5.90;;
45784;SDS011;31489;51.404;5.474;2024-01-30T00:14:31;17.98;;;10.07;;
45784;SDS011;31489;51.404;5.474;2024-01-30T00:16:57;17.35;;;9.35;;
45784;SDS011;31489;51.404;5.474;2024-01-30T00:19:22;10.13;;;6.50;;
45784;SDS011;31489;51.404;5.474;2024-01-30T00:21:50;10.93;;;6.63;;
45784;SDS011;31489;51.404;5.474;2024-01-30T00:24:16;7.72;;;5.55;;
45784;SDS011;31489;51.404;5.474;2024-01-30T00:26:42;7.65;;;5.78;;
45784;SDS011;31489;51.404;5.474;2024-01-30T00:29:07;7.30;;;5.00;;
45784;SDS011;31489;51.404;5.474;2024-01-30T00:31:33;7.20;;;5.30;;
45784;SDS011;31489;51.404;5.474;2024-01-30T00:34:00;7.90;;;5.53;;
45784;SDS011;31489;51.404;5.474;2024-01-30T00:36:25;7.65;;;5.07;;
45784;SDS011;31489;51.404;5.474;2024-01-30T00:38:51;9.27;;;5.65;;
45784;SDS011;31489;51.404;5.474;2024-01-30T00:41:17;7.30;;;5.53;;
45784;SDS011;31489;51.404;5.474;2024-01-30T00:43:44;8.52;;;4.90;;
45784;SDS011;31489;51.404;5.474;2024-01-30T00:46:10;6.65;;;5.10;;
45784;SDS011;31489;51.404;5.474;2024-01-30T00:48:35;7.25;;;5.72;;
45784;SDS011;31489;51.404;5.474;2024-01-30T00:51:01;6.25;;;5.05;;
45784;SDS011;31489;51.404;5.474;2024-01-30T00:53:26;8.85;;;5.20;;
45784;SDS011;31489;51.404;5.474;2024-01-30T00:55:52;10.10;;;5.47;;
45784;SDS011;31489;51.404;5.474;2024-01-30T00:58:18;9.00;;;4.95;;
45784;SDS011;31489;51.404;5.474;2024-01-30T01:00:44;7.05;;;5.00;;
45784;SDS011;31489;51.404;5.474;2024-01-30T01:03:10;7.78;;;5.25;;
45784;SDS011;31489;51.404;5.474;2024-01-30T01:05:35;8.85;;;5.25;;
45784;SDS011;31489;51.404;5.474;2024-01-30T01:08:01;8.43;;;5.55;;
45784;SDS011;31489;51.404;5.474;2024-01-30T01:10:27;6.35;;;5.50;;
45784;SDS011;31489;51.404;5.474;2024-01-30T01:12:53;6.97;;;5.20;;
45784;SDS011;31489;51.404;5.474;2024-01-30T01:15:18;7.43;;;5.47;;
45784;SDS011;31489;51.404;5.474;2024-01-30T01:17:44;7.18;;;5.00;;
45784;SDS011;31489;51.404;5.474;2024-01-30T01:20:11;7.15;;;5.10;;
45784;SDS011;31489;51.404;5.474;2024-01-30T01:22:37;7.65;;;5.20;;
45784;SDS011;31489;51.404;5.474;2024-01-30T01:25:03;8.30;;;5.30;;
45784;SDS011;31489;51.404;5.474;2024-01-30T01:27:32;8.18;;;5.57;;
45784;SDS011;31489;51.404;5.474;2024-01-30T01:29:59;7.82;;;5.50;;
45784;SDS011;31489;51.404;5.474;2024-01-30T01:32:25;7.35;;;5.18;;
45784;SDS011;31489;51.404;5.474;2024-01-30T01:34:51;6.40;;;5.18;;
45784;SDS011;31489;51.404;5.474;2024-01-30T01:37:17;6.43;;;4.88;;
45784;SDS011;31489;51.404;5.474;2024-01-30T01:39:42;6.80;;;5.00;;
45784;SDS011;31489;51.404;5.474;2024-01-30T01:42:08;5.68;;;4.40;;
45784;SDS011;31489;51.404;5.474;2024-01-30T01:44:34;7.47;;;5.43;;
45784;SDS011;31489;51.404;5.474;2024-01-30T01:47:00;9.05;;;5.10;;
45784;SDS011;31489;51.404;5.474;2024-01-30T01:49:26;6.00;;;4.97;;
45784;SDS011;31489;51.404;5.474;2024-01-30T01:51:54;8.23;;;5.88;;
45784;SDS011;31489;51.404;5.474;2024-01-30T01:54:21;8.10;;;5.90;;
45784;SDS011;31489;51.404;5.474;2024-01-30T01:56:49;7.40;;;5.55;;
45784;SDS011;31489;51.404;5.474;2024-01-30T01:59:16;7.72;;;5.05;;
45784;SDS011;31489;51.404;5.474;2024-01-30T02:01:42;7.20;;;5.00;;
45784;SDS011;31489;51.404;5.474;2024-01-30T02:04:08;6.57;;;4.97;;
45784;SDS011;31489;51.404;5.474;2024-01-30T02:06:34;7.53;;;5.15;;
45784;SDS011;31489;51.404;5.474;2024-01-30T02:09:00;8.50;;;5.15;;
45784;SDS011;31489;51.404;5.474;2024-01-30T02:11:25;9.13;;;5.60;;
45784;SDS011;31489;51.404;5.474;2024-01-30T02:13:52;7.45;;;4.90;;
45784;SDS011;31489;51.404;5.474;2024-01-30T02:16:18;8.95;;;5.10;;
45784;SDS011;31489;51.404;5.474;2024-01-30T02:18:43;7.85;;;4.82;;
45784;SDS011;31489;51.404;5.474;2024-01-30T02:21:12;8.18;;;5.28;;
45784;SDS011;31489;51.404;5.474;2024-01-30T02:23:39;7.90;;;5.38;;
45784;SDS011;31489;51.404;5.474;2024-01-30T02:26:05;7.40;;;5.03;;
45784;SDS011;31489;51.404;5.474;2024-01-30T02:28:31;10.00;;;4.82;;
45784;SDS011;31489;51.404;5.474;2024-01-30T02:30:57;7.47;;;5.43;;
45784;SDS011;31489;51.404;5.474;2024-01-30T02:33:22;6.43;;;4.95;;
45784;SDS011;31489;51.404;5.474;2024-01-30T02:35:48;7.45;;;4.45;;
45784;SDS011;31489;51.404;5.474;2024-01-30T02:38:15;6.72;;;4.93;;
45784;SDS011;31489;51.404;5.474;2024-01-30T02:40:40;6.47;;;4.72;;
45784;SDS011;31489;51.404;5.474;2024-01-30T02:43:06;6.40;;;4.97;;
45784;SDS011;31489;51.404;5.474;2024-01-30T02:45:32;6.65;;;4.95;;
45784;SDS011;31489;51.404;5.474;2024-01-30T02:47:58;5.70;;;4.28;;
45784;SDS011;31489;51.404;5.474;2024-01-30T02:50:24;7.15;;;5.03;;
45784;SDS011;31489;51.404;5.474;2024-01-30T02:52:50;8.80;;;5.40;;
45784;SDS011;31489;51.404;5.474;2024-01-30T02:55:16;7.53;;;5.47;;
45784;SDS011;31489;51.404;5.474;2024-01-30T02:57:44;6.85;;;4.93;;
45784;SDS011;31489;51.404;5.474;2024-01-30T03:00:10;6.97;;;4.72;;
45784;SDS011;31489;51.404;5.474;2024-01-30T03:02:36;6.53;;;4.53;;
45784;SDS011;31489;51.404;5.474;2024-01-30T03:05:02;8.20;;;5.15;;
45784;SDS011;31489;51.404;5.474;2024-01-30T03:07:31;8.98;;;5.30;;
45784;SDS011;31489;51.404;5.474;2024-01-30T03:09:56;6.93;;;5.05;;
45784;SDS011;31489;51.404;5.474;2024-01-30T03:12:22;6.93;;;4.78;;
45784;SDS011;31489;51.404;5.474;2024-01-30T03:14:48;6.47;;;4.78;;
45784;SDS011;31489;51.404;5.474;2024-01-30T03:17:14;6.93;;;4.50;;
45784;SDS011;31489;51.404;5.474;2024-01-30T03:19:40;5.53;;;4.55;;
45784;SDS011;31489;51.404;5.474;2024-01-30T03:22:06;6.13;;;4.40;;
45784;SDS011;31489;51.404;5.474;2024-01-30T03:24:31;6.97;;;4.30;;
45784;SDS011;31489;51.404;5.474;2024-01-30T03:26:57;7.85;;;5.10;;
45784;SDS011;31489;51.404;5.474;2024-01-30T03:29:23;6.20;;;4.60;;
45784;SDS011;31489;51.404;5.474;2024-01-30T03:31:48;7.82;;;4.45;;
45784;SDS011;31489;51.404;5.474;2024-01-30T03:34:16;7.82;;;5.20;;
45784;SDS011;31489;51.404;5.474;2024-01-30T03:36:42;9.15;;;4.82;;
45784;SDS011;31489;51.404;5.474;2024-01-30T03:39:08;6.38;;;4.78;;
45784;SDS011;31489;51.404;5.474;2024-01-30T03:41:33;9.40;;;4.57;;
45784;SDS011;31489;51.404;5.474;2024-01-30T03:43:59;6.00;;;4.63;;
45784;SDS011;31489;51.404;5.474;2024-01-30T03:46:24;5.22;;;4.25;;
45784;SDS011;31489;51.404;5.474;2024-01-30T03:48:53;7.05;;;4.85;;
45784;SDS011;31489;51.404;5.474;2024-01-30T03:51:18;6.47;;;5.00;;
45784;SDS011;31489;51.404;5.474;2024-01-30T03:53:44;7.68;;;5.20;;
45784;SDS011;31489;51.404;5.474;2024-01-30T03:56:11;7.55;;;5.05;;
45784;SDS011;31489;51.404;5.474;2024-01-30T03:58:38;6.40;;;4.53;;
45784;SDS011;31489;51.404;5.474;2024-01-30T04:01:04;5.60;;;4.72;;
45784;SDS011;31489;51.404;5.474;2024-01-30T04:03:30;6.13;;;4.15;;
45784;SDS011;31489;51.404;5.474;2024-01-30T04:05:55;9.07;;;4.90;;
45784;SDS011;31489;51.404;5.474;2024-01-30T04:08:21;7.65;;;4.60;;
45784;SDS011;31489;51.404;5.474;2024-01-30T04:10:47;6.97;;;4.55;;
45784;SDS011;31489;51.404;5.474;2024-01-30T04:13:13;9.70;;;4.80;;
45784;SDS011;31489;51.404;5.474;2024-01-30T04:15:39;7.72;;;4.75;;
45784;SDS011;31489;51.404;5.474;2024-01-30T04:18:04;7.28;;;4.40;;
45784;SDS011;31489;51.404;5.474;2024-01-30T04:20:30;5.85;;;4.20;;
45784;SDS011;31489;51.404;5.474;2024-01-30T04:22:56;7.95;;;5.20;;
45784;SDS011;31489;51.404;5.474;2024-01-30T04:25:22;11.25;;;4.53;;
45784;SDS011;31489;51.404;5.474;2024-01-30T04:27:47;7.50;;;4.70;;
45784;SDS011;31489;51.404;5.474;2024-01-30T04:30:14;9.25;;;4.80;;
45784;SDS011;31489;51.404;5.474;2024-01-30T04:32:39;7.53;;;4.28;;
45784;SDS011;31489;51.404;5.474;2024-01-30T04:35:05;8.60;;;4.43;;
45784;SDS011;31489;51.404;5.474;2024-01-30T04:37:31;7.65;;;4.20;;
45784;SDS011;31489;51.404;5.474;2024-01-30T04:39:56;6.15;;;4.30;;
45784;SDS011;31489;51.404;5.474;2024-01-30T04:42:22;7.82;;;3.83;;
45784;SDS011;31489;51.404;5.474;2024-01-30T04:44:48;5.53;;;3.78;;
45784;SDS011;31489;51.404;5.474;2024-01-30T04:47:14;7.25;;;3.97;;
45784;SDS011;31489;51.404;5.474;2024-01-30T04:49:40;5.28;;;3.75;;
45784;SDS011;31489;51.404;5.474;2024-01-30T04:52:08;7.15;;;4.13;;
45784;SDS011;31489;51.404;5.474;2024-01-30T04:54:34;6.07;;;3.67;;
45784;SDS011;31489;51.404;5.474;2024-01-30T04:57:01;5.78;;;4.03;;
45784;SDS011;31489;51.404;5.474;2024-01-30T04:59:27;7.38;;;4.07;;
45784;SDS011;31489;51.404;5.474;2024-01-30T05:01:53;5.07;;;3.63;;
45784;SDS011;31489;51.404;5.474;2024-01-30T05:04:19;6.07;;;3.63;;
45784;SDS011;31489;51.404;5.474;2024-01-30T05:06:45;6.22;;;3.95;;
45784;SDS011;31489;51.404;5.474;2024-01-30T05:09:11;6.47;;;3.90;;
45784;SDS011;31489;51.404;5.474;2024-01-30T05:11:40;6.65;;;3.60;;
45784;SDS011;31489;51.404;5.474;2024-01-30T05:14:07;5.05;;;3.80;;
45784;SDS011;31489;51.404;5.474;2024-01-30T05:16:33;6.63;;;3.78;;
45784;SDS011;31489;51.404;5.474;2024-01-30T05:18:59;5.28;;;3.67;;
45784;SDS011;31489;51.404;5.474;2024-01-30T05:21:25;5.80;;;3.33;;
45784;SDS011;31489;51.404;5.474;2024-01-30T05:23:51;5.53;;;3.53;;
45784;SDS011;31489;51.404;5.474;2024-01-30T05:26:16;4.90;;;3.78;;
45784;SDS011;31489;51.404;5.474;2024-01-30T05:28:43;5.82;;;3.70;;
45784;SDS011;31489;51.404;5.474;2024-01-30T05:31:14;8.75;;;3.83;;
45784;SDS011;31489;51.404;5.474;2024-01-30T05:33:40;6.15;;;3.67;;
45784;SDS011;31489;51.404;5.474;2024-01-30T05:36:06;6.38;;;3.55;;
45784;SDS011;31489;51.404;5.474;2024-01-30T05:38:32;4.25;;;3.30;;
45784;SDS011;31489;51.404;5.474;2024-01-30T05:40:57;7.00;;;3.95;;
45784;SDS011;31489;51.404;5.474;2024-01-30T05:43:23;5.60;;;3.72;;
45784;SDS011;31489;51.404;5.474;2024-01-30T05:45:49;5.15;;;3.58;;
45784;SDS011;31489;51.404;5.474;2024-01-30T05:48:15;6.20;;;3.42;;
45784;SDS011;31489;51.404;5.474;2024-01-30T05:50:41;5.85;;;3.70;;
45784;SDS011;31489;51.404;5.474;2024-01-30T05:53:07;5.82;;;3.50;;
45784;SDS011;31489;51.404;5.474;2024-01-30T05:55:33;4.30;;;3.58;;
45784;SDS011;31489;51.404;5.474;2024-01-30T05:57:58;5.13;;;3.90;;
45784;SDS011;31489;51.404;5.474;2024-01-30T06:00:27;4.53;;;3.35;;
45784;SDS011;31489;51.404;5.474;2024-01-30T06:02:52;5.13;;;3.83;;
45784;SDS011;31489;51.404;5.474;2024-01-30T06:05:18;6.75;;;3.65;;
45784;SDS011;31489;51.404;5.474;2024-01-30T06:07:43;5.05;;;3.45;;
45784;SDS011;31489;51.404;5.474;2024-01-30T06:10:09;4.43;;;3.30;;
45784;SDS011;31489;51.404;5.474;2024-01-30T06:12:35;5.75;;;3.72;;
45784;SDS011;31489;51.404;5.474;2024-01-30T06:15:01;7.18;;;4.10;;
45784;SDS011;31489;51.404;5.474;2024-01-30T06:17:27;4.15;;;3.60;;
45784;SDS011;31489;51.404;5.474;2024-01-30T06:19:53;7.88;;;3.90;;
45784;SDS011;31489;51.404;5.474;2024-01-30T06:22:19;5.18;;;3.35;;
45784;SDS011;31489;51.404;5.474;2024-01-30T06:24:45;4.38;;;3.20;;
45784;SDS011;31489;51.404;5.474;2024-01-30T06:27:12;9.75;;;3.40;;
45784;SDS011;31489;51.404;5.474;2024-01-30T06:29:38;4.20;;;3.20;;
45784;SDS011;31489;51.404;5.474;2024-01-30T06:32:05;5.93;;;3.33;;
45784;SDS011;31489;51.404;5.474;2024-01-30T06:34:31;6.28;;;3.70;;
45784;SDS011;31489;51.404;5.474;2024-01-30T06:36:56;5.88;;;3.83;;
45784;SDS011;31489;51.404;5.474;2024-01-30T06:39:22;4.93;;;3.45;;
45784;SDS011;31489;51.404;5.474;2024-01-30T06:41:48;6.38;;;3.70;;
45784;SDS011;31489;51.404;5.474;2024-01-30T06:44:14;6.20;;;3.50;;
45784;SDS011;31489;51.404;5.474;2024-01-30T06:46:40;3.42;;;2.97;;
45784;SDS011;31489;51.404;5.474;2024-01-30T06:49:05;5.97;;;3.35;;
45784;SDS011;31489;51.404;5.474;2024-01-30T06:51:31;5.22;;;3.80;;
45784;SDS011;31489;51.404;5.474;2024-01-30T06:53:57;5.65;;;3.85;;
45784;SDS011;31489;51.404;5.474;2024-01-30T06:56:22;4.57;;;3.40;;
45784;SDS011;31489;51.404;5.474;2024-01-30T06:58:48;5.05;;;3.30;;
45784;SDS011;31489;51.404;5.474;2024-01-30T07:01:15;6.22;;;3.40;;
45784;SDS011;31489;51.404;5.474;2024-01-30T07:03:41;5.93;;;4.00;;
45784;SDS011;31489;51.404;5.474;2024-01-30T07:06:07;4.95;;;3.35;;
45784;SDS011;31489;51.404;5.474;2024-01-30T07:08:33;4.80;;;3.40;;
45784;SDS011;31489;51.404;5.474;2024-01-30T07:10:59;5.10;;;3.47;;
45784;SDS011;31489;51.404;5.474;2024-01-30T07:13:25;6.20;;;3.38;;
45784;SDS011;31489;51.404;5.474;2024-01-30T07:15:50;6.72;;;4.22;;
45784;SDS011;31489;51.404;5.474;2024-01-30T07:18:16;5.50;;;3.40;;
45784;SDS011;31489;51.404;5.474;2024-01-30T07:20:41;4.47;;;3.67;;
45784;SDS011;31489;51.404;5.474;2024-01-30T07:23:14;4.85;;;3.63;;
45784;SDS011;31489;51.404;5.474;2024-01-30T07:25:43;5.15;;;3.53;;
45784;SDS011;31489;51.404;5.474;2024-01-30T07:28:09;7.15;;;3.88;;
45784;SDS011;31489;51.404;5.474;2024-01-30T07:30:36;5.75;;;3.72;;
45784;SDS011;31489;51.404;5.474;2024-01-30T07:33:02;6.47;;;4.00;;
45784;SDS011;31489;51.404;5.474;2024-01-30T07:35:27;7.88;;;3.75;;
45784;SDS011;31489;51.404;5.474;2024-01-30T07:37:53;8.88;;;3.47;;
45784;SDS011;31489;51.404;5.474;2024-01-30T07:40:19;6.15;;;3.92;;
45784;SDS011;31489;51.404;5.474;2024-01-30T07:42:44;6.85;;;4.05;;
45784;SDS011;31489;51.404;5.474;2024-01-30T07:45:10;6.15;;;4.15;;
45784;SDS011;31489;51.404;5.474;2024-01-30T07:47:36;5.82;;;3.90;;
45784;SDS011;31489;51.404;5.474;2024-01-30T07:50:01;8.73;;;4.15;;
45784;SDS011;31489;51.404;5.474;2024-01-30T07:52:27;7.28;;;4.30;;
45784;SDS011;31489;51.404;5.474;2024-01-30T07:54:53;6.50;;;4.15;;
45784;SDS011;31489;51.404;5.474;2024-01-30T07:57:20;6.10;;;3.58;;
45784;SDS011;31489;51.404;5.474;2024-01-30T07:59:46;7.68;;;4.20;;
45784;SDS011;31489;51.404;5.474;2024-01-30T08:02:12;5.63;;;4.30;;
45784;SDS011;31489;51.404;5.474;2024-01-30T08:04:38;5.85;;;3.85;;
45784;SDS011;31489;51.404;5.474;2024-01-30T08:07:04;9.45;;;4.53;;
45784;SDS011;31489;51.404;5.474;2024-01-30T08:09:29;6.97;;;3.85;;
45784;SDS011;31489;51.404;5.474;2024-01-30T08:11:55;5.45;;;4.28;;
45784;SDS011;31489;51.404;5.474;2024-01-30T08:14:21;5.10;;;3.92;;
45784;SDS011;31489;51.404;5.474;2024-01-30T08:16:47;5.22;;;3.90;;
45784;SDS011;31489;51.404;5.474;2024-01-30T08:19:13;5.30;;;4.00;;
45784;SDS011;31489;51.404;5.474;2024-01-30T08:21:39;10.30;;;4.53;;
45784;SDS011;31489;51.404;5.474;2024-01-30T08:24:05;6.50;;;4.63;;
45784;SDS011;31489;51.404;5.474;2024-01-30T08:26:32;7.38;;;4.30;;
45784;SDS011;31489;51.404;5.474;2024-01-30T08:28:58;5.63;;;3.60;;
45784;SDS011;31489;51.404;5.474;2024-01-30T08:31:23;6.63;;;4.43;;
45784;SDS011;31489;51.404;5.474;2024-01-30T08:33:49;8.57;;;4.53;;
45784;SDS011;31489;51.404;5.474;2024-01-30T08:36:15;8.55;;;4.40;;
45784;SDS011;31489;51.404;5.474;2024-01-30T08:38:41;6.53;;;4.68;;
45784;SDS011;31489;51.404;5.474;2024-01-30T08:41:07;7.82;;;4.82;;
45784;SDS011;31489;51.404;5.474;2024-01-30T08:43:33;7.35;;;4.55;;
45784;SDS011;31489;51.404;5.474;2024-01-30T08:45:59;6.47;;;4.40;;
45784;SDS011;31489;51.404;5.474;2024-01-30T08:48:25;6.18;;;4.20;;
45784;SDS011;31489;51.404;5.474;2024-01-30T08:50:51;7.03;;;4.45;;
45784;SDS011;31489;51.404;5.474;2024-01-30T08:53:17;7.95;;;4.90;;
45784;SDS011;31489;51.404;5.474;2024-01-30T08:55:43;5.20;;;4.20;;
45784;SDS011;31489;51.404;5.474;2024-01-30T08:58:09;6.30;;;4.40;;
45784;SDS011;31489;51.404;5.474;2024-01-30T09:00:35;9.82;;;4.55;;
45784;SDS011;31489;51.404;5.474;2024-01-30T09:03:01;10.38;;;4.38;;
45784;SDS011;31489;51.404;5.474;2024-01-30T09:05:27;9.82;;;5.13;;
45784;SDS011;31489;51.404;5.474;2024-01-30T09:07:52;7.93;;;5.40;;
45784;SDS011;31489;51.404;5.474;2024-01-30T09:10:18;11.00;;;5.15;;
45784;SDS011;31489;51.404;5.474;2024-01-30T09:12:45;6.60;;;4.40;;
45784;SDS011;31489;51.404;5.474;2024-01-30T09:15:10;6.22;;;4.55;;
45784;SDS011;31489;51.404;5.474;2024-01-30T09:17:36;7.75;;;4.80;;
45784;SDS011;31489;51.404;5.474;2024-01-30T09:20:02;7.68;;;4.28;;
45784;SDS011;31489;51.404;5.474;2024-01-30T09:22:28;9.77;;;5.03;;
45784;SDS011;31489;51.404;5.474;2024-01-30T09:24:53;7.07;;;4.78;;
45784;SDS011;31489;51.404;5.474;2024-01-30T09:27:19;9.52;;;4.57;;
45784;SDS011;31489;51.404;5.474;2024-01-30T09:29:45;6.55;;;4.65;;
45784;SDS011;31489;51.404;5.474;2024-01-30T09:32:10;8.43;;;4.60;;
45784;SDS011;31489;51.404;5.474;2024-01-30T09:34:39;6.70;;;4.68;;
45784;SDS011;31489;51.404;5.474;2024-01-30T09:37:05;8.30;;;4.50;;
45784;SDS011;31489;51.404;5.474;2024-01-30T09:39:30;9.93;;;5.28;;
45784;SDS011;31489;51.404;5.474;2024-01-30T09:42:05;11.18;;;5.47;;
45784;SDS011;31489;51.404;5.474;2024-01-30T09:45:07;9.45;;;5.10;;
45784;SDS011;31489;51.404;5.474;2024-01-30T09:47:43;6.55;;;4.35;;
45784;SDS011;31489;51.404;5.474;2024-01-30T09:50:10;10.25;;;5.38;;
45784;SDS011;31489;51.404;5.474;2024-01-30T09:52:37;8.82;;;4.68;;
45784;SDS011;31489;51.404;5.474;2024-01-30T09:55:05;8.40;;;4.88;;
45784;SDS011;31489;51.404;5.474;2024-01-30T09:57:31;8.57;;;4.40;;
45784;SDS011;31489;51.404;5.474;2024-01-30T09:59:57;9.30;;;4.60;;
45784;SDS011;31489;51.404;5.474;2024-01-30T10:02:23;10.30;;;5.25;;
45784;SDS011;31489;51.404;5.474;2024-01-30T10:04:52;9.32;;;5.25;;
45784;SDS011;31489;51.404;5.474;2024-01-30T10:07:18;12.38;;;5.60;;
45784;SDS011;31489;51.404;5.474;2024-01-30T10:09:44;7.55;;;5.68;;
45784;SDS011;31489;51.404;5.474;2024-01-30T10:12:10;10.55;;;5.20;;
45784;SDS011;31489;51.404;5.474;2024-01-30T10:14:39;11.35;;;5.10;;
45784;SDS011;31489;51.404;5.474;2024-01-30T10:17:09;6.78;;;4.70;;
45784;SDS011;31489;51.404;5.474;2024-01-30T10:19:39;8.57;;;5.20;;
45784;SDS011;31489;51.404;5.474;2024-01-30T10:22:06;9.88;;;5.30;;
45784;SDS011;31489;51.404;5.474;2024-01-30T10:24:35;12.23;;;5.22;;
45784;SDS011;31489;51.404;5.474;2024-01-30T10:27:01;8.73;;;5.47;;
45784;SDS011;31489;51.404;5.474;2024-01-30T10:29:28;8.25;;;4.82;;
45784;SDS011;31489;51.404;5.474;2024-01-30T10:32:04;9.95;;;5.75;;
45784;SDS011;31489;51.404;5.474;2024-01-30T10:34:31;9.38;;;5.18;;
45784;SDS011;31489;51.404;5.474;2024-01-30T10:37:10;8.40;;;4.90;;
45784;SDS011;31489;51.404;5.474;2024-01-30T10:39:42;11.63;;;5.47;;
45784;SDS011;31489;51.404;5.474;2024-01-30T10:42:11;11.23;;;5.60;;
45784;SDS011;31489;51.404;5.474;2024-01-30T10:47:12;11.38;;;5.45;;
45784;SDS011;31489;51.404;5.474;2024-01-30T10:49:43;10.82;;;5.78;;
45784;SDS011;31489;51.404;5.474;2024-01-30T10:52:11;7.57;;;4.90;;
45784;SDS011;31489;51.404;5.474;2024-01-30T10:54:38;11.18;;;5.60;;
45784;SDS011;31489;51.404;5.474;2024-01-30T10:57:08;9.57;;;5.10;;
45784;SDS011;31489;51.404;5.474;2024-01-30T10:59:36;9.95;;;6.35;;
45784;SDS011;31489;51.404;5.474;2024-01-30T11:02:02;10.02;;;5.43;;
45784;SDS011;31489;51.404;5.474;2024-01-30T11:04:35;9.82;;;5.88;;
45784;SDS011;31489;51.404;5.474;2024-01-30T11:07:01;11.20;;;5.60;;
45784;SDS011;31489;51.404;5.474;2024-01-30T11:09:29;10.15;;;5.35;;
45784;SDS011;31489;51.404;5.474;2024-01-30T11:11:58;10.00;;;5.63;;
45784;SDS011;31489;51.404;5.474;2024-01-30T11:14:30;13.70;;;5.32;;
45784;SDS011;31489;51.404;5.474;2024-01-30T11:16:57;10.60;;;5.68;;
45784;SDS011;31489;51.404;5.474;2024-01-30T11:19:24;9.15;;;5.03;;
45784;SDS011;31489;51.404;5.474;2024-01-30T11:21:53;8.52;;;5.32;;
45784;SDS011;31489;51.404;5.474;2024-01-30T11:24:23;9.35;;;5.10;;
45784;SDS011;31489;51.404;5.474;2024-01-30T11:26:49;11.45;;;5.32;;
45784;SDS011;31489;51.404;5.474;2024-01-30T11:29:20;9.90;;;5.63;;
45784;SDS011;31489;51.404;5.474;2024-01-30T11:31:52;9.15;;;5.00;;
45784;SDS011;31489;51.404;5.474;2024-01-30T11:34:22;8.90;;;5.10;;
45784;SDS011;31489;51.404;5.474;2024-01-30T11:36:51;10.43;;;4.82;;
45784;SDS011;31489;51.404;5.474;2024-01-30T11:39:24;9.02;;;5.57;;
45784;SDS011;31489;51.404;5.474;2024-01-30T11:41:51;8.93;;;5.43;;
45784;SDS011;31489;51.404;5.474;2024-01-30T11:44:18;8.75;;;4.55;;
45784;SDS011;31489;51.404;5.474;2024-01-30T11:46:48;9.07;;;4.88;;
45784;SDS011;31489;51.404;5.474;2024-01-30T11:49:14;8.63;;;3.92;;
45784;SDS011;31489;51.404;5.474;2024-01-30T11:51:41;8.35;;;4.47;;
45784;SDS011;31489;51.404;5.474;2024-01-30T11:54:07;7.38;;;4.18;;
45784;SDS011;31489;51.404;5.474;2024-01-30T11:56:33;11.57;;;4.72;;
45784;SDS011;31489;51.404;5.474;2024-01-30T11:58:58;9.38;;;4.03;;
45784;SDS011;31489;51.404;5.474;2024-01-30T12:01:25;7.63;;;4.38;;
45784;SDS011;31489;51.404;5.474;2024-01-30T12:03:52;7.75;;;4.00;;
45784;SDS011;31489;51.404;5.474;2024-01-30T12:06:17;6.47;;;3.80;;
45784;SDS011;31489;51.404;5.474;2024-01-30T12:08:55;7.20;;;3.45;;
45784;SDS011;31489;51.404;5.474;2024-01-30T12:11:29;7.32;;;3.40;;
45784;SDS011;31489;51.404;5.474;2024-01-30T12:13:55;7.32;;;3.20;;
45784;SDS011;31489;51.404;5.474;2024-01-30T12:16:21;4.78;;;3.08;;
45784;SDS011;31489;51.404;5.474;2024-01-30T12:18:47;8.43;;;2.95;;
45784;SDS011;31489;51.404;5.474;2024-01-30T12:21:15;4.18;;;2.97;;
45784;SDS011;31489;51.404;5.474;2024-01-30T12:23:42;8.35;;;3.08;;
45784;SDS011;31489;51.404;5.474;2024-01-30T12:26:08;7.53;;;2.97;;
45784;SDS011;31489;51.404;5.474;2024-01-30T12:28:33;5.07;;;3.35;;
45784;SDS011;31489;51.404;5.474;2024-01-30T12:31:02;9.18;;;3.75;;
45784;SDS011;31489;51.404;5.474;2024-01-30T12:33:29;10.73;;;4.18;;
45784;SDS011;31489;51.404;5.474;2024-01-30T12:35:55;6.75;;;3.83;;
45784;SDS011;31489;51.404;5.474;2024-01-30T12:38:22;8.00;;;4.03;;
45784;SDS011;31489;51.404;5.474;2024-01-30T12:40:49;7.13;;;3.60;;
45784;SDS011;31489;51.404;5.474;2024-01-30T12:43:15;9.15;;;3.40;;
45784;SDS011;31489;51.404;5.474;2024-01-30T12:45:41;3.85;;;2.63;;
45784;SDS011;31489;51.404;5.474;2024-01-30T12:48:07;6.35;;;2.65;;
45784;SDS011;31489;51.404;5.474;2024-01-30T12:50:36;4.30;;;2.20;;
45784;SDS011;31489;51.404;5.474;2024-01-30T12:53:01;3.05;;;1.90;;
45784;SDS011;31489;51.404;5.474;2024-01-30T12:55:27;4.50;;;1.90;;
45784;SDS011;31489;51.404;5.474;2024-01-30T12:57:54;2.05;;;1.13;;
45784;SDS011;31489;51.404;5.474;2024-01-30T13:00:20;4.90;;;1.50;;
45784;SDS011;31489;51.404;5.474;2024-01-30T13:02:47;2.20;;;0.95;;
45784;SDS011;31489;51.404;5.474;2024-01-30T13:05:13;2.50;;;1.00;;
45784;SDS011;31489;51.404;5.474;2024-01-30T13:07:39;5.53;;;1.10;;
45784;SDS011;31489;51.404;5.474;2024-01-30T13:10:05;1.63;;;0.80;;
45784;SDS011;31489;51.404;5.474;2024-01-30T13:12:31;3.25;;;0.90;;
45784;SDS011;31489;51.404;5.474;2024-01-30T13:14:58;3.85;;;1.40;;
45784;SDS011;31489;51.404;5.474;2024-01-30T13:17:26;3.80;;;0.98;;
45784;SDS011;31489;51.404;5.474;2024-01-30T13:19:54;2.35;;;1.30;;
45784;SDS011;31489;51.404;5.474;2024-01-30T13:22:20;2.70;;;1.10;;
45784;SDS011;31489;51.404;5.474;2024-01-30T13:24:49;1.77;;;0.80;;
45784;SDS011;31489;51.404;5.474;2024-01-30T13:27:14;2.78;;;0.73;;
45784;SDS011;31489;51.404;5.474;2024-01-30T13:29:40;4.88;;;0.80;;
45784;SDS011;31489;51.404;5.474;2024-01-30T13:32:06;3.58;;;1.00;;
45784;SDS011;31489;51.404;5.474;2024-01-30T13:34:32;2.45;;;1.10;;
45784;SDS011;31489;51.404;5.474;2024-01-30T13:36:58;1.50;;;0.63;;
45784;SDS011;31489;51.404;5.474;2024-01-30T13:39:23;5.32;;;1.17;;
45784;SDS011;31489;51.404;5.474;2024-01-30T13:41:49;2.80;;;1.08;;
45784;SDS011;31489;51.404;5.474;2024-01-30T13:44:15;1.60;;;0.95;;
45784;SDS011;31489;51.404;5.474;2024-01-30T13:46:42;1.60;;;0.82;;
45784;SDS011;31489;51.404;5.474;2024-01-30T13:49:08;1.45;;;0.75;;
45784;SDS011;31489;51.404;5.474;2024-01-30T13:51:34;3.13;;;0.80;;
45784;SDS011;31489;51.404;5.474;2024-01-30T13:53:59;2.40;;;0.70;;
45784;SDS011;31489;51.404;5.474;2024-01-30T13:56:25;1.45;;;0.57;;
45784;SDS011;31489;51.404;5.474;2024-01-30T13:58:52;2.03;;;0.82;;
45784;SDS011;31489;51.404;5.474;2024-01-30T14:01:18;2.60;;;1.10;;
45784;SDS011;31489;51.404;5.474;2024-01-30T14:03:43;4.75;;;0.90;;
45784;SDS011;31489;51.404;5.474;2024-01-30T14:06:09;1.90;;;0.77;;
45784;SDS011;31489;51.404;5.474;2024-01-30T14:08:36;3.10;;;0.90;;
45784;SDS011;31489;51.404;5.474;2024-01-30T14:11:01;2.92;;;0.90;;
45784;SDS011;31489;51.404;5.474;2024-01-30T14:13:27;2.58;;;0.93;;
45784;SDS011;31489;51.404;5.474;2024-01-30T14:15:53;3.35;;;0.90;;
45784;SDS011;31489;51.404;5.474;2024-01-30T14:18:19;3.70;;;1.00;;
45784;SDS011;31489;51.404;5.474;2024-01-30T14:20:44;2.00;;;0.80;;
45784;SDS011;31489;51.404;5.474;2024-01-30T14:23:10;4.00;;;1.17;;
45784;SDS011;31489;51.404;5.474;2024-01-30T14:25:36;2.72;;;1.10;;
45784;SDS011;31489;51.404;5.474;2024-01-30T14:28:02;3.67;;;0.90;;
45784;SDS011;31489;51.404;5.474;2024-01-30T14:30:27;3.30;;;0.70;;
45784;SDS011;31489;51.404;5.474;2024-01-30T14:32:53;4.22;;;1.00;;
45784;SDS011;31489;51.404;5.474;2024-01-30T14:35:19;2.28;;;0.70;;
45784;SDS011;31489;51.404;5.474;2024-01-30T14:37:45;3.85;;;1.10;;
45784;SDS011;31489;51.404;5.474;2024-01-30T14:40:11;2.45;;;1.00;;
45784;SDS011;31489;51.404;5.474;2024-01-30T14:42:36;2.75;;;1.10;;
45784;SDS011;31489;51.404;5.474;2024-01-30T14:45:03;3.67;;;1.20;;